sensor_id;sensor_type;location;lat;lon;timestamp;P1;durP1;ratioP1;P2;durP2;ratioP2
9827;SDS011;4953;48.952;9.442;2022-12-05T05:03:02;26.90;;;14.47;;
9827;SDS011;4953;48.952;9.442;2022-12-05T05:05:35;26.83;;;14.00;;
9827;SDS011;4953;48.952;9.442;2022-12-05T05:08:14;23.57;;;12.93;;
9827;SDS011;4953;48.952;9.442;2022-12-05T05:10:49;28.13;;;14.17;;
9827;SDS011;4953;48.952;9.442;2022-12-05T05:13:30;30.47;;;14.90;;
9827;SDS011;4953;48.952;9.442;2022-12-05T05:15:57;25.87;;;14.70;;
9827;SDS011;4953;48.952;9.442;2022-12-05T05:18:25;33.03;;;14.80;;
9827;SDS011;4953;48.952;9.442;2022-12-05T05:20:52;23.03;;;13.07;;
9827;SDS011;4953;48.952;9.442;2022-12-05T05:23:19;27.93;;;15.00;;
9827;SDS011;4953;48.952;9.442;2022-12-05T05:25:50;23.80;;;13.47;;
9827;SDS011;4953;48.952;9.442;2022-12-05T05:28:18;24.53;;;12.70;;
9827;SDS011;4953;48.952;9.442;2022-12-05T05:30:46;27.47;;;13.57;;
9827;SDS011;4953;48.952;9.442;2022-12-05T05:33:13;24.03;;;13.37;;
9827;SDS011;4953;48.952;9.442;2022-12-05T05:35:42;28.13;;;12.30;;
9827;SDS011;4953;48.952;9.442;2022-12-05T05:38:08;25.63;;;13.97;;
9827;SDS011;4953;48.952;9.442;2022-12-05T05:40:35;27.67;;;13.57;;
9827;SDS011;4953;48.952;9.442;2022-12-05T05:43:02;25.47;;;14.03;;
9827;SDS011;4953;48.952;9.442;2022-12-05T05:45:30;29.23;;;13.40;;
9827;SDS011;4953;48.952;9.442;2022-12-05T05:47:56;21.77;;;12.53;;
9827;SDS011;4953;48.952;9.442;2022-12-05T05:50:23;26.23;;;14.30;;
9827;SDS011;4953;48.952;9.442;2022-12-05T05:52:52;24.00;;;12.97;;
9827;SDS011;4953;48.952;9.442;2022-12-05T05:55:19;25.57;;;14.23;;
9827;SDS011;4953;48.952;9.442;2022-12-05T05:57:50;24.60;;;13.03;;
9827;SDS011;4953;48.952;9.442;2022-12-05T06:00:18;24.60;;;13.57;;
9827;SDS011;4953;48.952;9.442;2022-12-05T06:02:45;31.83;;;14.77;;
9827;SDS011;4953;48.952;9.442;2022-12-05T06:05:12;28.97;;;13.60;;
9827;SDS011;4953;48.952;9.442;2022-12-05T06:07:39;25.53;;;13.60;;
9827;SDS011;4953;48.952;9.442;2022-12-05T06:10:08;25.73;;;13.83;;
9827;SDS011;4953;48.952;9.442;2022-12-05T06:12:35;23.83;;;13.10;;
9827;SDS011;4953;48.952;9.442;2022-12-05T06:15:02;29.03;;;14.53;;
9827;SDS011;4953;48.952;9.442;2022-12-05T06:17:31;26.40;;;15.40;;
9827;SDS011;4953;48.952;9.442;2022-12-05T06:19:58;25.83;;;14.23;;
9827;SDS011;4953;48.952;9.442;2022-12-05T06:22:25;27.33;;;13.30;;
9827;SDS011;4953;48.952;9.442;2022-12-05T06:24:54;27.13;;;14.53;;
9827;SDS011;4953;48.952;9.442;2022-12-05T06:27:22;31.33;;;14.93;;
9827;SDS011;4953;48.952;9.442;2022-12-05T06:29:49;30.43;;;14.10;;
9827;SDS011;4953;48.952;9.442;2022-12-05T06:32:18;29.40;;;15.07;;
9827;SDS011;4953;48.952;9.442;2022-12-05T06:34:45;30.23;;;15.60;;
9827;SDS011;4953;48.952;9.442;2022-12-05T06:37:12;27.07;;;14.70;;
9827;SDS011;4953;48.952;9.442;2022-12-05T06:39:39;26.47;;;14.13;;
9827;SDS011;4953;48.952;9.442;2022-12-05T06:42:06;26.90;;;14.67;;
9827;SDS011;4953;48.952;9.442;2022-12-05T06:44:34;33.57;;;14.63;;
9827;SDS011;4953;48.952;9.442;2022-12-05T06:47:01;29.90;;;15.10;;
9827;SDS011;4953;48.952;9.442;2022-12-05T06:49:29;26.27;;;14.57;;
9827;SDS011;4953;48.952;9.442;2022-12-05T06:51:56;28.43;;;14.10;;
9827;SDS011;4953;48.952;9.442;2022-12-05T06:54:24;32.87;;;15.87;;
9827;SDS011;4953;48.952;9.442;2022-12-05T06:56:51;24.20;;;15.37;;
9827;SDS011;4953;48.952;9.442;2022-12-05T06:59:18;25.03;;;13.53;;
9827;SDS011;4953;48.952;9.442;2022-12-05T07:01:46;29.17;;;14.73;;
9827;SDS011;4953;48.952;9.442;2022-12-05T07:04:13;28.10;;;14.47;;
9827;SDS011;4953;48.952;9.442;2022-12-05T07:06:44;28.93;;;14.20;;
9827;SDS011;4953;48.952;9.442;2022-12-05T07:09:13;24.70;;;13.87;;
9827;SDS011;4953;48.952;9.442;2022-12-05T07:11:41;30.03;;;14.10;;
9827;SDS011;4953;48.952;9.442;2022-12-05T07:14:12;26.17;;;14.20;;
9827;SDS011;4953;48.952;9.442;2022-12-05T07:16:39;23.60;;;13.20;;
9827;SDS011;4953;48.952;9.442;2022-12-05T07:19:07;24.60;;;14.40;;
9827;SDS011;4953;48.952;9.442;2022-12-05T07:21:35;23.70;;;12.77;;
9827;SDS011;4953;48.952;9.442;2022-12-05T07:24:02;29.90;;;15.43;;
9827;SDS011;4953;48.952;9.442;2022-12-05T07:26:29;27.93;;;14.80;;
9827;SDS011;4953;48.952;9.442;2022-12-05T07:28:56;27.53;;;14.53;;
9827;SDS011;4953;48.952;9.442;2022-12-05T07:31:23;25.80;;;14.10;;
9827;SDS011;4953;48.952;9.442;2022-12-05T07:33:53;31.63;;;14.50;;
9827;SDS011;4953;48.952;9.442;2022-12-05T07:36:22;26.07;;;13.37;;
9827;SDS011;4953;48.952;9.442;2022-12-05T07:38:53;29.90;;;13.97;;
9827;SDS011;4953;48.952;9.442;2022-12-05T07:41:22;26.53;;;14.30;;
9827;SDS011;4953;48.952;9.442;2022-12-05T07:43:52;25.73;;;13.03;;
9827;SDS011;4953;48.952;9.442;2022-12-05T07:46:20;25.07;;;13.17;;
9827;SDS011;4953;48.952;9.442;2022-12-05T07:48:49;30.60;;;14.07;;
9827;SDS011;4953;48.952;9.442;2022-12-05T07:51:17;25.13;;;13.73;;
9827;SDS011;4953;48.952;9.442;2022-12-05T07:53:46;25.20;;;13.60;;
9827;SDS011;4953;48.952;9.442;2022-12-05T07:56:15;25.43;;;14.30;;
9827;SDS011;4953;48.952;9.442;2022-12-05T07:58:43;26.17;;;14.20;;
9827;SDS011;4953;48.952;9.442;2022-12-05T08:01:13;27.13;;;15.13;;
9827;SDS011;4953;48.952;9.442;2022-12-05T08:03:43;26.40;;;14.17;;
9827;SDS011;4953;48.952;9.442;2022-12-05T08:06:12;27.77;;;14.53;;
9827;SDS011;4953;48.952;9.442;2022-12-05T08:08:41;27.77;;;15.07;;
9827;SDS011;4953;48.952;9.442;2022-12-05T08:11:10;27.77;;;14.30;;
9827;SDS011;4953;48.952;9.442;2022-12-05T08:13:39;28.77;;;13.90;;
9827;SDS011;4953;48.952;9.442;2022-12-05T08:16:08;26.53;;;14.60;;
9827;SDS011;4953;48.952;9.442;2022-12-05T08:18:38;27.40;;;14.10;;
9827;SDS011;4953;48.952;9.442;2022-12-05T08:21:06;28.73;;;14.90;;
9827;SDS011;4953;48.952;9.442;2022-12-05T08:23:35;25.53;;;13.80;;
9827;SDS011;4953;48.952;9.442;2022-12-05T08:26:04;27.77;;;13.83;;
9827;SDS011;4953;48.952;9.442;2022-12-05T08:28:36;30.53;;;15.00;;
9827;SDS011;4953;48.952;9.442;2022-12-05T08:31:04;27.87;;;15.70;;
9827;SDS011;4953;48.952;9.442;2022-12-05T08:33:32;30.20;;;15.80;;
9827;SDS011;4953;48.952;9.442;2022-12-05T08:36:00;30.13;;;15.60;;
9827;SDS011;4953;48.952;9.442;2022-12-05T08:38:28;28.77;;;15.70;;
9827;SDS011;4953;48.952;9.442;2022-12-05T08:40:57;27.37;;;15.07;;
9827;SDS011;4953;48.952;9.442;2022-12-05T08:43:26;28.67;;;15.90;;
9827;SDS011;4953;48.952;9.442;2022-12-05T08:45:55;29.47;;;14.27;;
9827;SDS011;4953;48.952;9.442;2022-12-05T08:48:23;24.47;;;12.30;;
9827;SDS011;4953;48.952;9.442;2022-12-05T08:50:51;30.73;;;14.70;;
9827;SDS011;4953;48.952;9.442;2022-12-05T08:53:18;26.40;;;14.40;;
9827;SDS011;4953;48.952;9.442;2022-12-05T08:55:46;25.03;;;13.30;;
9827;SDS011;4953;48.952;9.442;2022-12-05T08:58:13;28.10;;;14.80;;
9827;SDS011;4953;48.952;9.442;2022-12-05T09:00:40;33.37;;;15.00;;
9827;SDS011;4953;48.952;9.442;2022-12-05T09:03:09;32.00;;;16.10;;
9827;SDS011;4953;48.952;9.442;2022-12-05T09:05:37;31.63;;;17.07;;
9827;SDS011;4953;48.952;9.442;2022-12-05T09:08:04;30.80;;;16.00;;
9827;SDS011;4953;48.952;9.442;2022-12-05T09:10:31;29.47;;;15.20;;
9827;SDS011;4953;48.952;9.442;2022-12-05T09:12:58;28.13;;;15.27;;
9827;SDS011;4953;48.952;9.442;2022-12-05T09:15:25;29.70;;;16.67;;
9827;SDS011;4953;48.952;9.442;2022-12-05T09:17:52;31.97;;;16.23;;
9827;SDS011;4953;48.952;9.442;2022-12-05T09:20:21;31.27;;;17.07;;
9827;SDS011;4953;48.952;9.442;2022-12-05T09:22:48;34.27;;;17.37;;
9827;SDS011;4953;48.952;9.442;2022-12-05T09:25:17;36.50;;;19.50;;
9827;SDS011;4953;48.952;9.442;2022-12-05T09:27:44;33.63;;;14.90;;
9827;SDS011;4953;48.952;9.442;2022-12-05T09:30:11;27.87;;;15.37;;
9827;SDS011;4953;48.952;9.442;2022-12-05T09:32:39;29.80;;;17.57;;
9827;SDS011;4953;48.952;9.442;2022-12-05T09:35:06;25.47;;;15.60;;
9827;SDS011;4953;48.952;9.442;2022-12-05T09:37:35;33.40;;;17.97;;
9827;SDS011;4953;48.952;9.442;2022-12-05T09:40:02;35.00;;;18.93;;
9827;SDS011;4953;48.952;9.442;2022-12-05T09:42:34;25.37;;;14.80;;
9827;SDS011;4953;48.952;9.442;2022-12-05T09:45:14;27.17;;;13.87;;
9827;SDS011;4953;48.952;9.442;2022-12-05T09:47:53;23.80;;;14.60;;
9827;SDS011;4953;48.952;9.442;2022-12-05T09:50:26;24.73;;;13.80;;
9827;SDS011;4953;48.952;9.442;2022-12-05T09:53:02;21.40;;;13.17;;
9827;SDS011;4953;48.952;9.442;2022-12-05T09:55:46;20.40;;;13.37;;
9827;SDS011;4953;48.952;9.442;2022-12-05T09:58:26;26.50;;;13.60;;
9827;SDS011;4953;48.952;9.442;2022-12-05T10:01:08;23.47;;;13.10;;
9827;SDS011;4953;48.952;9.442;2022-12-05T10:03:55;24.17;;;12.77;;
9827;SDS011;4953;48.952;9.442;2022-12-05T10:06:49;27.67;;;14.23;;
9827;SDS011;4953;48.952;9.442;2022-12-05T10:09:32;22.80;;;14.00;;
9827;SDS011;4953;48.952;9.442;2022-12-05T10:12:17;25.20;;;13.67;;
9827;SDS011;4953;48.952;9.442;2022-12-05T10:15:07;28.20;;;16.85;;
9827;SDS011;4953;48.952;9.442;2022-12-05T10:17:43;24.30;;;15.23;;
9827;SDS011;4953;48.952;9.442;2022-12-05T10:20:18;25.70;;;14.70;;
9827;SDS011;4953;48.952;9.442;2022-12-05T10:22:54;27.63;;;13.77;;
9827;SDS011;4953;48.952;9.442;2022-12-05T10:25:29;28.40;;;15.37;;
9827;SDS011;4953;48.952;9.442;2022-12-05T10:28:01;27.70;;;14.13;;
9827;SDS011;4953;48.952;9.442;2022-12-05T10:30:39;23.83;;;14.30;;
9827;SDS011;4953;48.952;9.442;2022-12-05T10:33:11;25.80;;;15.20;;
9827;SDS011;4953;48.952;9.442;2022-12-05T10:35:46;26.57;;;14.33;;
9827;SDS011;4953;48.952;9.442;2022-12-05T10:38:18;34.10;;;15.60;;
9827;SDS011;4953;48.952;9.442;2022-12-05T10:40:56;27.93;;;14.40;;
9827;SDS011;4953;48.952;9.442;2022-12-05T10:43:29;27.37;;;14.43;;
9827;SDS011;4953;48.952;9.442;2022-12-05T10:45:59;22.80;;;13.20;;
9827;SDS011;4953;48.952;9.442;2022-12-05T10:48:29;28.80;;;14.17;;
9827;SDS011;4953;48.952;9.442;2022-12-05T10:51:02;25.00;;;14.07;;
9827;SDS011;4953;48.952;9.442;2022-12-05T10:53:34;28.13;;;15.50;;
9827;SDS011;4953;48.952;9.442;2022-12-05T10:59:10;28.00;;;15.00;;
9827;SDS011;4953;48.952;9.442;2022-12-05T11:01:42;24.20;;;13.90;;
9827;SDS011;4953;48.952;9.442;2022-12-05T11:04:24;24.10;;;13.80;;
9827;SDS011;4953;48.952;9.442;2022-12-05T11:06:56;23.70;;;13.70;;
9827;SDS011;4953;48.952;9.442;2022-12-05T11:09:26;24.77;;;13.40;;
9827;SDS011;4953;48.952;9.442;2022-12-05T11:12:16;22.80;;;13.60;;
9827;SDS011;4953;48.952;9.442;2022-12-05T11:14:53;21.90;;;13.37;;
9827;SDS011;4953;48.952;9.442;2022-12-05T11:17:24;30.93;;;16.20;;
9827;SDS011;4953;48.952;9.442;2022-12-05T11:19:55;27.40;;;14.20;;
9827;SDS011;4953;48.952;9.442;2022-12-05T11:22:28;27.77;;;14.33;;
9827;SDS011;4953;48.952;9.442;2022-12-05T11:24:58;24.47;;;13.53;;
9827;SDS011;4953;48.952;9.442;2022-12-05T11:27:28;26.00;;;14.40;;
9827;SDS011;4953;48.952;9.442;2022-12-05T11:29:58;21.33;;;12.87;;
9827;SDS011;4953;48.952;9.442;2022-12-05T11:32:30;25.37;;;14.63;;
9827;SDS011;4953;48.952;9.442;2022-12-05T11:35:02;29.07;;;14.83;;
9827;SDS011;4953;48.952;9.442;2022-12-05T11:37:43;23.33;;;14.10;;
9827;SDS011;4953;48.952;9.442;2022-12-05T11:40:17;37.47;;;21.00;;
9827;SDS011;4953;48.952;9.442;2022-12-05T11:43:04;25.73;;;15.23;;
9827;SDS011;4953;48.952;9.442;2022-12-05T11:45:58;32.77;;;17.83;;
9827;SDS011;4953;48.952;9.442;2022-12-05T11:48:48;28.53;;;14.83;;
9827;SDS011;4953;48.952;9.442;2022-12-05T11:51:32;27.17;;;14.57;;
9827;SDS011;4953;48.952;9.442;2022-12-05T11:57:15;24.20;;;13.53;;
9827;SDS011;4953;48.952;9.442;2022-12-05T12:00:16;23.73;;;14.07;;
9827;SDS011;4953;48.952;9.442;2022-12-05T12:03:01;28.20;;;13.93;;
9827;SDS011;4953;48.952;9.442;2022-12-05T12:06:00;24.87;;;14.50;;
9827;SDS011;4953;48.952;9.442;2022-12-05T12:08:56;26.17;;;13.53;;
9827;SDS011;4953;48.952;9.442;2022-12-05T12:11:51;27.53;;;14.07;;
9827;SDS011;4953;48.952;9.442;2022-12-05T12:14:31;22.17;;;13.43;;
9827;SDS011;4953;48.952;9.442;2022-12-05T12:17:11;23.50;;;13.20;;
9827;SDS011;4953;48.952;9.442;2022-12-05T12:19:51;24.13;;;13.60;;
9827;SDS011;4953;48.952;9.442;2022-12-05T12:22:43;23.37;;;13.53;;
9827;SDS011;4953;48.952;9.442;2022-12-05T12:25:33;26.70;;;13.50;;
9827;SDS011;4953;48.952;9.442;2022-12-05T12:28:19;24.67;;;14.17;;
9827;SDS011;4953;48.952;9.442;2022-12-05T12:31:05;26.83;;;13.53;;
9827;SDS011;4953;48.952;9.442;2022-12-05T12:33:56;24.57;;;13.53;;
9827;SDS011;4953;48.952;9.442;2022-12-05T12:36:37;29.87;;;13.37;;
9827;SDS011;4953;48.952;9.442;2022-12-05T12:39:15;21.80;;;13.13;;
9827;SDS011;4953;48.952;9.442;2022-12-05T12:42:03;26.03;;;13.30;;
9827;SDS011;4953;48.952;9.442;2022-12-05T12:45:01;19.83;;;12.40;;
9827;SDS011;4953;48.952;9.442;2022-12-05T12:47:51;23.27;;;13.47;;
9827;SDS011;4953;48.952;9.442;2022-12-05T12:50:39;23.03;;;12.70;;
9827;SDS011;4953;48.952;9.442;2022-12-05T12:53:19;25.70;;;13.80;;
9827;SDS011;4953;48.952;9.442;2022-12-05T12:56:13;21.73;;;13.50;;
9827;SDS011;4953;48.952;9.442;2022-12-05T12:59:02;20.10;;;13.37;;
9827;SDS011;4953;48.952;9.442;2022-12-05T13:01:46;23.43;;;14.07;;
9827;SDS011;4953;48.952;9.442;2022-12-05T13:04:22;24.87;;;13.53;;
9827;SDS011;4953;48.952;9.442;2022-12-05T13:06:59;21.30;;;12.80;;
9827;SDS011;4953;48.952;9.442;2022-12-05T13:09:32;21.53;;;12.70;;
9827;SDS011;4953;48.952;9.442;2022-12-05T13:12:09;22.43;;;13.67;;
9827;SDS011;4953;48.952;9.442;2022-12-05T13:14:42;23.50;;;13.27;;
9827;SDS011;4953;48.952;9.442;2022-12-05T13:17:18;19.80;;;12.53;;
9827;SDS011;4953;48.952;9.442;2022-12-05T13:19:48;18.23;;;11.20;;
9827;SDS011;4953;48.952;9.442;2022-12-05T13:22:18;22.03;;;11.90;;
9827;SDS011;4953;48.952;9.442;2022-12-05T13:24:49;21.57;;;13.00;;
9827;SDS011;4953;48.952;9.442;2022-12-05T13:27:18;19.77;;;12.63;;
9827;SDS011;4953;48.952;9.442;2022-12-05T13:29:50;26.40;;;14.40;;
9827;SDS011;4953;48.952;9.442;2022-12-05T13:32:28;23.10;;;12.27;;
9827;SDS011;4953;48.952;9.442;2022-12-05T13:34:59;22.67;;;14.10;;
9827;SDS011;4953;48.952;9.442;2022-12-05T13:37:35;22.87;;;14.00;;
9827;SDS011;4953;48.952;9.442;2022-12-05T13:40:30;25.83;;;13.67;;
9827;SDS011;4953;48.952;9.442;2022-12-05T13:43:18;18.30;;;11.63;;
9827;SDS011;4953;48.952;9.442;2022-12-05T13:45:53;19.50;;;12.30;;
9827;SDS011;4953;48.952;9.442;2022-12-05T13:48:31;20.03;;;12.60;;
9827;SDS011;4953;48.952;9.442;2022-12-05T13:51:02;23.40;;;14.03;;
9827;SDS011;4953;48.952;9.442;2022-12-05T13:53:37;26.80;;;13.87;;
9827;SDS011;4953;48.952;9.442;2022-12-05T13:56:22;22.20;;;12.43;;
9827;SDS011;4953;48.952;9.442;2022-12-05T13:58:53;21.13;;;11.70;;
9827;SDS011;4953;48.952;9.442;2022-12-05T14:04:22;21.13;;;11.73;;
9827;SDS011;4953;48.952;9.442;2022-12-05T14:07:12;19.83;;;11.77;;
9827;SDS011;4953;48.952;9.442;2022-12-05T14:10:07;19.03;;;12.30;;
9827;SDS011;4953;48.952;9.442;2022-12-05T14:12:48;19.30;;;11.10;;
9827;SDS011;4953;48.952;9.442;2022-12-05T14:15:25;21.13;;;11.90;;
9827;SDS011;4953;48.952;9.442;2022-12-05T14:17:59;19.00;;;12.27;;
9827;SDS011;4953;48.952;9.442;2022-12-05T14:20:39;22.40;;;11.83;;
9827;SDS011;4953;48.952;9.442;2022-12-05T14:23:40;18.20;;;12.13;;
9827;SDS011;4953;48.952;9.442;2022-12-05T14:26:53;19.47;;;11.60;;
9827;SDS011;4953;48.952;9.442;2022-12-05T14:29:36;20.50;;;12.07;;
9827;SDS011;4953;48.952;9.442;2022-12-05T14:32:19;22.57;;;12.87;;
9827;SDS011;4953;48.952;9.442;2022-12-05T14:34:53;17.03;;;12.43;;
9827;SDS011;4953;48.952;9.442;2022-12-05T14:37:25;26.50;;;12.57;;
9827;SDS011;4953;48.952;9.442;2022-12-05T14:39:55;19.43;;;12.00;;
9827;SDS011;4953;48.952;9.442;2022-12-05T14:42:28;20.77;;;13.00;;
9827;SDS011;4953;48.952;9.442;2022-12-05T14:45:16;18.90;;;11.63;;
9827;SDS011;4953;48.952;9.442;2022-12-05T14:47:55;21.70;;;12.77;;
9827;SDS011;4953;48.952;9.442;2022-12-05T14:50:36;21.37;;;12.33;;
9827;SDS011;4953;48.952;9.442;2022-12-05T14:53:29;18.37;;;11.87;;
9827;SDS011;4953;48.952;9.442;2022-12-05T14:56:01;19.63;;;13.60;;
9827;SDS011;4953;48.952;9.442;2022-12-05T14:58:42;21.90;;;12.53;;
9827;SDS011;4953;48.952;9.442;2022-12-05T15:01:17;22.80;;;12.03;;
9827;SDS011;4953;48.952;9.442;2022-12-05T15:04:02;19.53;;;12.60;;
9827;SDS011;4953;48.952;9.442;2022-12-05T15:06:44;17.60;;;10.50;;
9827;SDS011;4953;48.952;9.442;2022-12-05T15:09:27;21.87;;;14.50;;
9827;SDS011;4953;48.952;9.442;2022-12-05T15:12:11;20.87;;;12.67;;
9827;SDS011;4953;48.952;9.442;2022-12-05T15:14:47;19.80;;;13.57;;
9827;SDS011;4953;48.952;9.442;2022-12-05T15:17:29;24.30;;;12.77;;
9827;SDS011;4953;48.952;9.442;2022-12-05T15:20:10;21.30;;;12.73;;
9827;SDS011;4953;48.952;9.442;2022-12-05T15:22:45;23.30;;;13.30;;
9827;SDS011;4953;48.952;9.442;2022-12-05T15:25:12;21.03;;;13.10;;
9827;SDS011;4953;48.952;9.442;2022-12-05T15:27:53;19.43;;;12.23;;
9827;SDS011;4953;48.952;9.442;2022-12-05T15:30:24;19.97;;;12.43;;
9827;SDS011;4953;48.952;9.442;2022-12-05T15:32:53;20.43;;;13.53;;
9827;SDS011;4953;48.952;9.442;2022-12-05T15:35:22;23.60;;;12.87;;
9827;SDS011;4953;48.952;9.442;2022-12-05T15:37:53;20.13;;;12.50;;
9827;SDS011;4953;48.952;9.442;2022-12-05T15:40:30;20.20;;;12.00;;
9827;SDS011;4953;48.952;9.442;2022-12-05T15:43:01;19.23;;;12.70;;
9827;SDS011;4953;48.952;9.442;2022-12-05T15:46:06;19.30;;;12.33;;
9827;SDS011;4953;48.952;9.442;2022-12-05T15:48:48;20.50;;;12.20;;
9827;SDS011;4953;48.952;9.442;2022-12-05T15:51:16;22.17;;;13.57;;
9827;SDS011;4953;48.952;9.442;2022-12-05T15:53:49;18.27;;;11.37;;
9827;SDS011;4953;48.952;9.442;2022-12-05T15:56:25;21.30;;;12.50;;
9827;SDS011;4953;48.952;9.442;2022-12-05T15:58:57;18.20;;;12.00;;
9827;SDS011;4953;48.952;9.442;2022-12-05T16:01:40;22.93;;;12.30;;
9827;SDS011;4953;48.952;9.442;2022-12-05T16:04:16;23.73;;;13.93;;
9827;SDS011;4953;48.952;9.442;2022-12-05T16:06:53;20.23;;;12.70;;
9827;SDS011;4953;48.952;9.442;2022-12-05T16:09:22;18.17;;;11.80;;
9827;SDS011;4953;48.952;9.442;2022-12-05T16:11:56;21.03;;;13.10;;
9827;SDS011;4953;48.952;9.442;2022-12-05T16:14:28;27.83;;;15.40;;
9827;SDS011;4953;48.952;9.442;2022-12-05T16:17:00;27.80;;;15.97;;
9827;SDS011;4953;48.952;9.442;2022-12-05T16:19:30;26.87;;;17.20;;
9827;SDS011;4953;48.952;9.442;2022-12-05T16:21:58;29.17;;;18.03;;
9827;SDS011;4953;48.952;9.442;2022-12-05T16:24:37;31.07;;;19.10;;
9827;SDS011;4953;48.952;9.442;2022-12-05T16:27:12;32.10;;;18.47;;
9827;SDS011;4953;48.952;9.442;2022-12-05T16:29:42;32.40;;;17.80;;
9827;SDS011;4953;48.952;9.442;2022-12-05T16:32:16;24.87;;;15.30;;
9827;SDS011;4953;48.952;9.442;2022-12-05T16:34:48;30.37;;;19.50;;
9827;SDS011;4953;48.952;9.442;2022-12-05T16:37:16;36.00;;;22.27;;
9827;SDS011;4953;48.952;9.442;2022-12-05T16:39:49;34.77;;;21.73;;
9827;SDS011;4953;48.952;9.442;2022-12-05T16:42:20;29.77;;;19.73;;
9827;SDS011;4953;48.952;9.442;2022-12-05T16:44:53;26.63;;;17.30;;
9827;SDS011;4953;48.952;9.442;2022-12-05T16:50:23;25.20;;;17.20;;
9827;SDS011;4953;48.952;9.442;2022-12-05T16:53:00;27.03;;;17.77;;
9827;SDS011;4953;48.952;9.442;2022-12-05T16:55:45;31.20;;;17.67;;
9827;SDS011;4953;48.952;9.442;2022-12-05T16:58:14;30.47;;;18.07;;
9827;SDS011;4953;48.952;9.442;2022-12-05T17:00:50;25.27;;;16.63;;
9827;SDS011;4953;48.952;9.442;2022-12-05T17:03:18;31.30;;;18.03;;
9827;SDS011;4953;48.952;9.442;2022-12-05T17:05:45;23.50;;;15.80;;
9827;SDS011;4953;48.952;9.442;2022-12-05T17:08:12;28.73;;;17.07;;
9827;SDS011;4953;48.952;9.442;2022-12-05T17:10:40;22.60;;;14.23;;
9827;SDS011;4953;48.952;9.442;2022-12-05T17:13:08;26.20;;;14.40;;
9827;SDS011;4953;48.952;9.442;2022-12-05T17:15:40;21.93;;;14.00;;
9827;SDS011;4953;48.952;9.442;2022-12-05T17:18:09;25.90;;;13.20;;
9827;SDS011;4953;48.952;9.442;2022-12-05T17:20:42;22.73;;;13.63;;
9827;SDS011;4953;48.952;9.442;2022-12-05T17:23:14;25.10;;;14.87;;
9827;SDS011;4953;48.952;9.442;2022-12-05T17:25:43;20.80;;;13.73;;
9827;SDS011;4953;48.952;9.442;2022-12-05T17:28:14;23.80;;;15.43;;
9827;SDS011;4953;48.952;9.442;2022-12-05T17:30:41;26.13;;;15.20;;
9827;SDS011;4953;48.952;9.442;2022-12-05T17:33:08;23.50;;;15.10;;
9827;SDS011;4953;48.952;9.442;2022-12-05T17:35:38;23.50;;;16.40;;
9827;SDS011;4953;48.952;9.442;2022-12-05T17:38:08;28.50;;;18.17;;
9827;SDS011;4953;48.952;9.442;2022-12-05T17:40:36;32.67;;;19.00;;
9827;SDS011;4953;48.952;9.442;2022-12-05T17:43:04;32.83;;;18.53;;
9827;SDS011;4953;48.952;9.442;2022-12-05T17:45:31;32.97;;;19.10;;
9827;SDS011;4953;48.952;9.442;2022-12-05T17:47:58;45.47;;;27.77;;
9827;SDS011;4953;48.952;9.442;2022-12-05T17:50:25;57.73;;;35.00;;
9827;SDS011;4953;48.952;9.442;2022-12-05T17:52:54;57.70;;;35.97;;
9827;SDS011;4953;48.952;9.442;2022-12-05T17:55:25;59.23;;;38.63;;
9827;SDS011;4953;48.952;9.442;2022-12-05T17:57:54;52.13;;;33.43;;
9827;SDS011;4953;48.952;9.442;2022-12-05T18:00:23;36.83;;;22.23;;
9827;SDS011;4953;48.952;9.442;2022-12-05T18:02:50;33.80;;;20.77;;
9827;SDS011;4953;48.952;9.442;2022-12-05T18:05:17;29.43;;;17.33;;
9827;SDS011;4953;48.952;9.442;2022-12-05T18:07:46;31.23;;;17.50;;
9827;SDS011;4953;48.952;9.442;2022-12-05T18:10:14;31.37;;;19.23;;
9827;SDS011;4953;48.952;9.442;2022-12-05T18:12:45;35.50;;;22.27;;
9827;SDS011;4953;48.952;9.442;2022-12-05T18:15:15;35.00;;;22.60;;
9827;SDS011;4953;48.952;9.442;2022-12-05T18:17:43;34.00;;;22.73;;
9827;SDS011;4953;48.952;9.442;2022-12-05T18:20:14;29.60;;;18.93;;
9827;SDS011;4953;48.952;9.442;2022-12-05T18:22:41;33.60;;;18.20;;
9827;SDS011;4953;48.952;9.442;2022-12-05T18:25:09;29.03;;;19.47;;
9827;SDS011;4953;48.952;9.442;2022-12-05T18:27:37;31.87;;;18.47;;
9827;SDS011;4953;48.952;9.442;2022-12-05T18:30:06;31.70;;;20.33;;
9827;SDS011;4953;48.952;9.442;2022-12-05T18:32:36;31.20;;;18.70;;
9827;SDS011;4953;48.952;9.442;2022-12-05T18:35:04;31.60;;;18.57;;
9827;SDS011;4953;48.952;9.442;2022-12-05T18:37:33;30.33;;;19.20;;
9827;SDS011;4953;48.952;9.442;2022-12-05T18:40:01;29.80;;;17.33;;
9827;SDS011;4953;48.952;9.442;2022-12-05T18:42:28;24.47;;;15.97;;
9827;SDS011;4953;48.952;9.442;2022-12-05T18:44:55;27.13;;;17.00;;
9827;SDS011;4953;48.952;9.442;2022-12-05T18:47:24;32.20;;;19.13;;
9827;SDS011;4953;48.952;9.442;2022-12-05T18:49:51;31.60;;;18.50;;
9827;SDS011;4953;48.952;9.442;2022-12-05T18:52:18;26.10;;;16.10;;
9827;SDS011;4953;48.952;9.442;2022-12-05T18:54:45;39.00;;;20.43;;
9827;SDS011;4953;48.952;9.442;2022-12-05T18:57:12;38.03;;;18.83;;
9827;SDS011;4953;48.952;9.442;2022-12-05T18:59:39;48.17;;;19.00;;
9827;SDS011;4953;48.952;9.442;2022-12-05T19:02:05;38.67;;;19.03;;
9827;SDS011;4953;48.952;9.442;2022-12-05T19:04:36;32.60;;;19.00;;
9827;SDS011;4953;48.952;9.442;2022-12-05T19:07:03;37.97;;;20.13;;
9827;SDS011;4953;48.952;9.442;2022-12-05T19:09:30;35.53;;;20.93;;
9827;SDS011;4953;48.952;9.442;2022-12-05T19:11:57;44.90;;;25.90;;
9827;SDS011;4953;48.952;9.442;2022-12-05T19:14:26;40.83;;;23.73;;
9827;SDS011;4953;48.952;9.442;2022-12-05T19:16:57;38.70;;;22.73;;
9827;SDS011;4953;48.952;9.442;2022-12-05T19:19:24;39.70;;;22.90;;
9827;SDS011;4953;48.952;9.442;2022-12-05T19:21:53;36.60;;;23.37;;
9827;SDS011;4953;48.952;9.442;2022-12-05T19:24:20;37.17;;;21.60;;
9827;SDS011;4953;48.952;9.442;2022-12-05T19:26:47;35.23;;;20.47;;
9827;SDS011;4953;48.952;9.442;2022-12-05T19:29:15;30.93;;;19.57;;
9827;SDS011;4953;48.952;9.442;2022-12-05T19:31:42;35.30;;;20.17;;
9827;SDS011;4953;48.952;9.442;2022-12-05T19:34:09;28.47;;;18.87;;
9827;SDS011;4953;48.952;9.442;2022-12-05T19:36:37;31.97;;;20.07;;
9827;SDS011;4953;48.952;9.442;2022-12-05T19:39:10;34.10;;;20.50;;
9827;SDS011;4953;48.952;9.442;2022-12-05T19:41:41;39.13;;;22.00;;
9827;SDS011;4953;48.952;9.442;2022-12-05T19:44:09;30.10;;;20.47;;
9827;SDS011;4953;48.952;9.442;2022-12-05T19:46:36;32.30;;;20.60;;
9827;SDS011;4953;48.952;9.442;2022-12-05T19:49:04;33.00;;;19.77;;
9827;SDS011;4953;48.952;9.442;2022-12-05T19:51:34;33.33;;;20.33;;
9827;SDS011;4953;48.952;9.442;2022-12-05T19:54:02;31.60;;;19.07;;
9827;SDS011;4953;48.952;9.442;2022-12-05T19:56:33;31.20;;;20.17;;
9827;SDS011;4953;48.952;9.442;2022-12-05T19:59:02;34.13;;;21.03;;
9827;SDS011;4953;48.952;9.442;2022-12-05T20:01:31;35.60;;;22.03;;
9827;SDS011;4953;48.952;9.442;2022-12-05T20:04:01;35.47;;;22.67;;
9827;SDS011;4953;48.952;9.442;2022-12-05T20:06:31;37.60;;;22.00;;
9827;SDS011;4953;48.952;9.442;2022-12-05T20:09:00;42.80;;;23.07;;
9827;SDS011;4953;48.952;9.442;2022-12-05T20:11:27;40.37;;;25.73;;
9827;SDS011;4953;48.952;9.442;2022-12-05T20:13:57;37.30;;;23.50;;
9827;SDS011;4953;48.952;9.442;2022-12-05T20:16:26;37.20;;;23.57;;
9827;SDS011;4953;48.952;9.442;2022-12-05T20:18:54;39.03;;;23.47;;
9827;SDS011;4953;48.952;9.442;2022-12-05T20:21:23;48.40;;;27.10;;
9827;SDS011;4953;48.952;9.442;2022-12-05T20:23:52;36.10;;;24.93;;
9827;SDS011;4953;48.952;9.442;2022-12-05T20:26:20;45.80;;;24.97;;
9827;SDS011;4953;48.952;9.442;2022-12-05T20:28:51;41.20;;;23.93;;
9827;SDS011;4953;48.952;9.442;2022-12-05T20:31:24;36.63;;;23.70;;
9827;SDS011;4953;48.952;9.442;2022-12-05T20:33:54;45.60;;;27.47;;
9827;SDS011;4953;48.952;9.442;2022-12-05T20:36:23;41.80;;;25.43;;